Portada
METAR-TAF:

METAR-TAF

Aeroports :

Aghajari, Iran

latitud: 30-46N, longitud: 049-40E, altitud: 29 m

Observació

L'informe es va fer fa 5 hores i 45 minuts, a les 17:00 UTC
Vent 2 kt del Sud-Est
Temperatura 21°C
Humitat 38%
Pressió 1016 hPa
Visibilitat 10 km o més
sense núvols per sota de 1500 mi sense presència de cumulonimbus.

METAR: OIAG 131700Z 14002KT CAVOK 21/06 Q1016

Hora: 02:15 (22:45 UTC)


TAF: manca

Observacions i pronòstics meteorològics de més de 4000 aeroports (METAR i TAF).

Les estacions disponibles són els punts grocs i vermells al mapa.

Posi el ratolí al punt desitjat per veure el nom de l'estació.

Feu clic per veure les observacions i els pronòstics meteorològics.

Per canviar el mapa: feu clic els botons verds amb una creu de color negre per apropar; al botó verd amb un guió per allunyar la imatge; o en les fletxes verdes per a mapes adjacents.


METAR-TAF: